createdAt,value
2018-12-08T00:00:17.707Z,6.90
2018-12-08T00:02:44.931Z,6.90
2018-12-08T00:05:12.093Z,6.90
2018-12-08T00:07:41.360Z,6.90
2018-12-08T00:10:08.599Z,7.00
2018-12-08T00:12:35.761Z,6.90
2018-12-08T00:15:04.632Z,6.90
2018-12-08T00:17:31.792Z,6.90
2018-12-08T00:19:59.042Z,6.90
2018-12-08T00:22:26.335Z,6.90
2018-12-08T00:24:53.652Z,6.90
2018-12-08T00:27:20.843Z,6.80
2018-12-08T00:29:53.555Z,6.80
2018-12-08T00:32:20.767Z,6.80
2018-12-08T00:34:47.973Z,6.80
2018-12-08T00:37:15.168Z,6.80
2018-12-08T00:39:42.409Z,6.80
2018-12-08T00:42:09.599Z,6.80
2018-12-08T00:44:36.822Z,6.70
2018-12-08T00:47:03.997Z,6.70
2018-12-08T00:49:31.170Z,6.70
2018-12-08T00:51:58.396Z,6.70
2018-12-08T00:54:29.458Z,6.70
2018-12-08T00:56:56.692Z,6.70
2018-12-08T00:59:25.895Z,6.60
2018-12-08T01:01:53.085Z,6.60
2018-12-08T01:04:20.304Z,6.60
2018-12-08T01:06:47.521Z,6.60
2018-12-08T01:09:18.399Z,6.50
2018-12-08T01:11:45.577Z,6.50
2018-12-08T01:14:19.076Z,6.40
2018-12-08T01:16:46.260Z,6.40
2018-12-08T01:19:21.037Z,6.40
2018-12-08T01:21:48.215Z,6.40
2018-12-08T01:24:15.464Z,6.30
2018-12-08T01:26:42.653Z,6.30
2018-12-08T01:29:09.897Z,6.30
2018-12-08T01:31:37.173Z,6.30
2018-12-08T01:34:04.332Z,6.30
2018-12-08T01:36:31.553Z,6.30
2018-12-08T01:38:58.749Z,6.30
2018-12-08T01:41:25.973Z,6.30
2018-12-08T01:43:53.139Z,6.30
2018-12-08T01:46:20.359Z,6.40
2018-12-08T01:48:47.543Z,6.50
2018-12-08T01:51:14.751Z,6.50
2018-12-08T01:53:47.751Z,6.60
2018-12-08T01:56:14.993Z,6.60
2018-12-08T01:58:46.193Z,6.70
2018-12-08T02:01:13.356Z,6.70
2018-12-08T02:03:41.486Z,6.70
2018-12-08T02:06:08.672Z,6.70
2018-12-08T02:08:48.323Z,6.80
2018-12-08T02:11:15.526Z,6.80
2018-12-08T02:13:42.712Z,6.70
2018-12-08T02:16:10.035Z,6.70
2018-12-08T02:18:37.195Z,6.80
2018-12-08T02:21:16.985Z,6.80
2018-12-08T02:23:44.148Z,6.70
2018-12-08T02:26:11.355Z,6.70
2018-12-08T02:28:38.575Z,6.70
2018-12-08T02:31:05.741Z,6.80
2018-12-08T02:33:32.946Z,6.70
2018-12-08T02:36:00.166Z,6.70
2018-12-08T02:38:27.354Z,6.80
2018-12-08T02:40:56.633Z,6.80
2018-12-08T02:43:23.998Z,6.80
2018-12-08T02:45:55.622Z,6.80
2018-12-08T02:48:22.793Z,6.70
2018-12-08T02:50:50.016Z,6.80
2018-12-08T02:53:17.181Z,6.80
2018-12-08T02:55:54.317Z,6.80
2018-12-08T02:58:21.500Z,6.80
2018-12-08T03:00:50.745Z,6.90
2018-12-08T03:03:17.951Z,6.90
2018-12-08T03:05:45.209Z,6.80
2018-12-08T03:08:12.395Z,6.80
2018-12-08T03:10:39.717Z,6.80
2018-12-08T03:13:11.258Z,6.80
2018-12-08T03:15:38.480Z,6.80
2018-12-08T03:18:05.740Z,6.80
2018-12-08T03:20:32.942Z,6.70
2018-12-08T03:23:05.988Z,6.70
2018-12-08T03:25:33.223Z,6.70
2018-12-08T03:28:00.479Z,6.60
2018-12-08T03:30:27.657Z,6.60
2018-12-08T03:32:55.024Z,6.60
2018-12-08T03:35:22.373Z,6.60
2018-12-08T03:37:50.749Z,6.60
2018-12-08T03:40:17.949Z,6.50
2018-12-08T03:42:49.039Z,6.60
2018-12-08T03:45:16.255Z,6.60
2018-12-08T03:47:43.569Z,6.60
2018-12-08T03:50:10.877Z,6.60
2018-12-08T03:52:38.140Z,6.60
2018-12-08T03:55:05.472Z,6.60
2018-12-08T03:57:35.955Z,6.60
2018-12-08T04:00:03.956Z,6.60
2018-12-08T04:02:32.299Z,6.60
2018-12-08T04:04:59.574Z,6.70
2018-12-08T04:07:28.134Z,6.70
2018-12-08T04:09:55.381Z,6.70
2018-12-08T04:12:26.006Z,6.70
2018-12-08T04:14:53.229Z,6.70
2018-12-08T04:17:22.552Z,6.70
2018-12-08T04:19:49.772Z,6.70
2018-12-08T04:22:18.085Z,6.80
2018-12-08T04:24:45.313Z,6.80
2018-12-08T04:27:12.579Z,6.80
2018-12-08T04:29:39.802Z,6.80
2018-12-08T04:32:07.275Z,6.80
2018-12-08T04:34:34.552Z,6.80
2018-12-08T04:37:01.916Z,6.80
2018-12-08T04:39:29.114Z,6.80
2018-12-08T04:41:56.386Z,6.80
2018-12-08T04:44:23.600Z,6.80
2018-12-08T04:47:07.434Z,6.80
2018-12-08T04:49:34.599Z,6.90
2018-12-08T04:52:02.940Z,6.90
2018-12-08T04:54:30.112Z,6.90
2018-12-08T04:57:03.895Z,6.90
2018-12-08T05:02:11.443Z,7.00
2018-12-08T05:04:42.431Z,6.90
2018-12-08T05:07:09.622Z,6.90
2018-12-08T05:09:38.404Z,7.00
2018-12-08T05:12:05.580Z,7.00
2018-12-08T05:14:32.832Z,7.00
2018-12-08T05:17:00.085Z,7.10
2018-12-08T05:19:27.279Z,7.10
2018-12-08T05:22:01.689Z,7.10
2018-12-08T05:24:29.016Z,7.10
2018-12-08T05:27:01.449Z,7.20
2018-12-08T05:29:28.640Z,7.20
2018-12-08T05:31:55.916Z,7.20
2018-12-08T05:34:23.077Z,7.20
2018-12-08T05:36:51.378Z,7.20
2018-12-08T05:39:18.572Z,7.30
2018-12-08T05:41:53.685Z,7.30
2018-12-08T05:44:20.868Z,7.30
2018-12-08T05:46:52.043Z,7.30
2018-12-08T05:49:19.236Z,7.30
2018-12-08T05:51:46.642Z,7.30
2018-12-08T05:54:13.854Z,7.30
2018-12-08T05:56:41.102Z,7.30
2018-12-08T05:59:08.299Z,7.40
2018-12-08T06:01:35.496Z,7.40
2018-12-08T06:04:02.653Z,7.40
2018-12-08T06:06:29.941Z,7.50
2018-12-08T06:08:57.153Z,7.50
2018-12-08T06:11:24.419Z,7.50
2018-12-08T06:13:52.702Z,7.40
2018-12-08T06:16:19.899Z,7.40
2018-12-08T06:18:47.107Z,7.40
2018-12-08T06:21:14.325Z,7.40
2018-12-08T06:23:45.157Z,7.40
2018-12-08T06:26:12.535Z,7.30
2018-12-08T06:28:41.725Z,7.20
2018-12-08T06:31:08.920Z,7.20
2018-12-08T06:33:41.889Z,7.20
2018-12-08T06:36:09.184Z,7.20
2018-12-08T06:38:36.387Z,7.10
2018-12-08T06:41:03.587Z,7.10
2018-12-08T06:43:31.856Z,7.10
2018-12-08T06:45:59.042Z,7.00
2018-12-08T06:48:26.455Z,7.00
2018-12-08T06:50:53.640Z,7.00
2018-12-08T06:53:20.939Z,7.00
2018-12-08T06:55:48.147Z,7.00
2018-12-08T06:58:18.786Z,7.00
2018-12-08T07:00:46.130Z,7.10
2018-12-08T07:03:13.390Z,7.20
2018-12-08T07:05:40.615Z,7.20
2018-12-08T07:08:07.890Z,7.30
2018-12-08T07:10:35.061Z,7.40
2018-12-08T07:13:02.327Z,7.40
2018-12-08T07:15:29.514Z,7.40
2018-12-08T07:17:57.769Z,7.40
2018-12-08T07:20:24.947Z,7.50
2018-12-08T07:22:53.201Z,7.50
2018-12-08T07:25:20.365Z,7.50
2018-12-08T07:27:47.562Z,7.50
2018-12-08T07:30:14.785Z,7.50
2018-12-08T07:32:42.087Z,7.60
2018-12-08T07:35:09.288Z,7.70
2018-12-08T07:37:40.357Z,7.70
2018-12-08T07:40:07.562Z,7.70
2018-12-08T07:42:34.771Z,7.60
2018-12-08T07:45:02.081Z,7.70
2018-12-08T07:47:29.347Z,7.70
2018-12-08T07:49:56.506Z,7.70
2018-12-08T07:52:23.795Z,7.70
2018-12-08T07:54:50.988Z,7.70
2018-12-08T07:57:23.439Z,7.70
2018-12-08T07:59:50.617Z,7.70
2018-12-08T08:02:17.928Z,7.80
2018-12-08T08:04:45.124Z,7.80
2018-12-08T08:07:18.113Z,7.70
2018-12-08T08:09:45.308Z,7.80
2018-12-08T08:12:13.724Z,7.80
2018-12-08T08:14:40.904Z,7.80
2018-12-08T08:17:08.085Z,7.80
2018-12-08T08:19:35.319Z,7.80
2018-12-08T08:22:02.636Z,7.80
2018-12-08T08:24:32.913Z,7.70
2018-12-08T08:27:00.073Z,7.80
2018-12-08T08:29:27.320Z,7.80
2018-12-08T08:31:54.553Z,7.70
2018-12-08T08:34:21.831Z,7.70
2018-12-08T08:36:49.040Z,7.70
2018-12-08T08:39:16.278Z,7.70
2018-12-08T08:41:43.497Z,7.60
2018-12-08T08:44:10.688Z,7.60
2018-12-08T08:46:37.902Z,7.60
2018-12-08T08:49:05.124Z,7.60
2018-12-08T08:51:32.328Z,7.60
2018-12-08T08:53:59.523Z,7.60
2018-12-08T08:56:26.745Z,7.70
2018-12-08T08:58:54.041Z,7.70
2018-12-08T09:01:21.262Z,7.70
2018-12-08T09:03:48.648Z,7.70
2018-12-08T09:06:15.842Z,7.70
2018-12-08T09:08:45.074Z,7.70
2018-12-08T09:11:13.361Z,7.70
2018-12-08T09:13:40.532Z,7.70
2018-12-08T09:16:07.877Z,7.70
2018-12-08T09:18:35.121Z,7.70
2018-12-08T09:21:02.326Z,7.70
2018-12-08T09:23:29.648Z,7.70
2018-12-08T09:25:56.827Z,7.80
2018-12-08T09:28:24.045Z,7.80
2018-12-08T09:30:51.236Z,7.90
2018-12-08T09:33:18.444Z,7.90
2018-12-08T09:35:45.687Z,8.00
2018-12-08T09:38:12.911Z,8.00
2018-12-08T09:40:40.297Z,8.00
2018-12-08T09:43:07.457Z,8.00
2018-12-08T09:45:41.602Z,8.00
2018-12-08T09:48:03.912Z,7.90
2018-12-08T09:50:31.106Z,7.90
2018-12-08T09:53:21.754Z,7.80
2018-12-08T09:55:48.941Z,7.90
2018-12-08T09:58:18.183Z,7.80
2018-12-08T10:00:45.347Z,7.80
2018-12-08T10:03:12.584Z,7.80
2018-12-08T10:05:39.810Z,7.80
2018-12-08T10:08:07.043Z,7.90
2018-12-08T10:10:34.241Z,7.80
2018-12-08T10:13:02.202Z,7.70
2018-12-08T10:15:31.642Z,7.60
2018-12-08T10:17:58.826Z,7.60
2018-12-08T10:20:29.596Z,7.60
2018-12-08T10:22:56.816Z,7.60
2018-12-08T10:25:24.434Z,7.60
2018-12-08T10:27:52.025Z,7.70
2018-12-08T10:30:20.236Z,7.60
2018-12-08T10:32:47.403Z,7.60
2018-12-08T10:35:15.786Z,7.60
2018-12-08T10:37:42.981Z,7.60
2018-12-08T10:40:10.202Z,7.60
2018-12-08T10:42:37.414Z,7.70
2018-12-08T10:45:05.136Z,7.60
2018-12-08T10:47:32.330Z,7.60
2018-12-08T10:49:59.579Z,7.60
2018-12-08T10:52:26.833Z,7.50
2018-12-08T10:54:54.065Z,7.50
2018-12-08T10:57:21.268Z,7.40
2018-12-08T10:59:48.493Z,7.40
2018-12-08T11:02:21.407Z,7.40
2018-12-08T11:04:49.647Z,7.40
2018-12-08T11:07:16.814Z,7.40
2018-12-08T11:09:44.057Z,7.30
2018-12-08T11:12:11.283Z,7.30
2018-12-08T11:14:38.501Z,7.30
2018-12-08T11:17:05.746Z,7.30
2018-12-08T11:19:34.106Z,7.30
2018-12-08T11:22:01.333Z,7.40
2018-12-08T11:24:28.521Z,7.40
2018-12-08T11:26:56.787Z,7.40
2018-12-08T11:29:23.952Z,7.50
2018-12-08T11:31:51.183Z,7.50
2018-12-08T11:34:18.377Z,7.50
2018-12-08T11:36:49.662Z,7.50
2018-12-08T11:39:18.161Z,7.50
2018-12-08T11:41:45.605Z,7.50
2018-12-08T11:44:12.820Z,7.50
2018-12-08T11:46:41.823Z,7.60
2018-12-08T11:49:09.039Z,7.60
2018-12-08T11:51:44.470Z,7.60
2018-12-08T11:54:11.811Z,7.60
2018-12-08T11:56:39.041Z,7.60
2018-12-08T11:59:06.195Z,7.60
2018-12-08T12:01:33.464Z,7.60
2018-12-08T12:04:00.673Z,7.70
2018-12-08T12:06:34.403Z,7.60
2018-12-08T12:09:01.580Z,7.70
2018-12-08T12:11:29.819Z,7.80
2018-12-08T12:13:57.008Z,7.80
2018-12-08T12:16:24.209Z,7.90
2018-12-08T12:18:55.989Z,8.00
2018-12-08T12:21:23.161Z,8.00
2018-12-08T12:23:53.994Z,8.00
2018-12-08T12:26:21.193Z,8.10
2018-12-08T12:28:52.985Z,8.10
2018-12-08T12:31:20.184Z,8.20
2018-12-08T12:33:52.945Z,8.20
2018-12-08T12:36:20.133Z,8.20
2018-12-08T12:38:53.632Z,8.30
2018-12-08T12:41:20.832Z,8.40
2018-12-08T12:43:49.168Z,8.40
2018-12-08T12:46:16.375Z,8.40
2018-12-08T12:48:43.682Z,8.50
2018-12-08T12:51:10.870Z,8.60
2018-12-08T12:53:38.192Z,8.60
2018-12-08T12:56:05.462Z,8.60
2018-12-08T12:58:34.735Z,8.60
2018-12-08T13:01:01.917Z,8.60
2018-12-08T13:03:29.291Z,8.60
2018-12-08T13:05:56.464Z,8.60
2018-12-08T13:11:09.426Z,8.60
2018-12-08T13:13:36.651Z,8.60
2018-12-08T13:16:04.079Z,8.70
2018-12-08T13:18:31.562Z,8.60
2018-12-08T13:20:58.775Z,8.60
2018-12-08T13:23:29.468Z,8.60
2018-12-08T13:25:56.697Z,8.60
2018-12-08T13:28:25.014Z,8.60
2018-12-08T13:30:52.199Z,8.50
2018-12-08T13:33:19.575Z,8.60
2018-12-08T13:35:50.772Z,8.60
2018-12-08T13:38:18.558Z,8.70
2018-12-08T13:40:45.790Z,8.70
2018-12-08T13:43:20.211Z,8.70
2018-12-08T13:45:47.386Z,8.70
2018-12-08T13:48:18.677Z,8.70
2018-12-08T13:50:46.017Z,8.70
2018-12-08T13:53:15.347Z,8.80
2018-12-08T13:55:42.563Z,8.70
2018-12-08T13:58:14.286Z,8.70
2018-12-08T14:00:41.551Z,8.70
2018-12-08T14:03:08.833Z,8.70
2018-12-08T14:05:36.001Z,8.60
2018-12-08T14:08:09.194Z,8.60
2018-12-08T14:10:40.589Z,8.60
2018-12-08T14:13:07.761Z,8.60
2018-12-08T14:15:34.951Z,8.60
2018-12-08T14:18:02.213Z,8.70
2018-12-08T14:20:29.388Z,8.70
2018-12-08T14:22:56.727Z,8.70
2018-12-08T14:25:23.923Z,8.70
2018-12-08T14:27:53.195Z,8.70
2018-12-08T14:30:20.469Z,8.70
2018-12-08T14:32:48.789Z,8.80
2018-12-08T14:35:16.025Z,8.80
2018-12-08T14:37:43.296Z,8.80
2018-12-08T14:40:10.670Z,8.80
2018-12-08T14:42:37.866Z,8.80
2018-12-08T14:45:05.264Z,8.70
2018-12-08T14:47:32.640Z,8.70
2018-12-08T14:49:59.969Z,8.70
2018-12-08T14:52:27.154Z,8.60
2018-12-08T14:54:56.412Z,8.60
2018-12-08T14:57:23.616Z,8.60
2018-12-08T14:59:50.970Z,8.60
2018-12-08T15:02:18.305Z,8.60
2018-12-08T15:04:48.784Z,8.60
2018-12-08T15:07:15.986Z,8.50
2018-12-08T15:09:46.801Z,8.50
2018-12-08T15:12:14.030Z,8.50
2018-12-08T15:14:41.251Z,8.50
2018-12-08T15:17:08.441Z,8.50
2018-12-08T15:19:35.716Z,8.40
2018-12-08T15:22:02.919Z,8.40
2018-12-08T15:24:30.214Z,8.20
2018-12-08T15:26:57.412Z,8.20
2018-12-08T15:29:24.821Z,8.10
2018-12-08T15:31:52.016Z,8.10
2018-12-08T15:34:19.314Z,8.20
2018-12-08T15:36:46.540Z,8.20
2018-12-08T15:39:13.815Z,8.40
2018-12-08T15:41:41.035Z,8.40
2018-12-08T15:44:08.320Z,8.40
2018-12-08T15:46:35.520Z,8.40
2018-12-08T15:49:06.736Z,8.40
2018-12-08T15:51:34.042Z,8.40
2018-12-08T15:54:01.325Z,8.40
2018-12-08T15:56:28.521Z,8.40
2018-12-08T15:58:57.783Z,8.40
2018-12-08T16:01:24.948Z,8.30
2018-12-08T16:03:54.330Z,8.20
2018-12-08T16:06:21.514Z,8.20
2018-12-08T16:08:55.258Z,8.20
2018-12-08T16:11:22.428Z,8.20
2018-12-08T16:13:49.684Z,8.20
2018-12-08T16:16:18.059Z,8.20
2018-12-08T16:18:45.251Z,8.20
2018-12-08T16:21:13.461Z,8.30
2018-12-08T16:23:40.689Z,8.20
2018-12-08T16:26:10.962Z,8.30
2018-12-08T16:28:38.142Z,8.30
2018-12-08T16:31:09.970Z,8.40
2018-12-08T16:33:37.169Z,8.40
2018-12-08T16:36:10.699Z,8.40
2018-12-08T16:38:37.884Z,8.50
2018-12-08T16:41:10.920Z,8.50
2018-12-08T16:43:38.233Z,8.50
2018-12-08T16:46:05.419Z,8.50
2018-12-08T16:48:32.609Z,8.50
2018-12-08T16:51:05.552Z,8.50
2018-12-08T16:53:32.740Z,8.50
2018-12-08T16:56:00.004Z,8.50
2018-12-08T16:58:27.201Z,8.50
2018-12-08T17:00:55.414Z,8.50
2018-12-08T17:03:22.640Z,8.50
2018-12-08T17:05:49.830Z,8.50
2018-12-08T17:08:17.024Z,8.50
2018-12-08T17:10:50.575Z,8.50
2018-12-08T17:13:17.957Z,8.50
2018-12-08T17:15:45.189Z,8.50
2018-12-08T17:18:12.353Z,8.50
2018-12-08T17:20:39.577Z,8.40
2018-12-08T17:23:06.915Z,8.40
2018-12-08T17:25:36.118Z,8.40
2018-12-08T17:28:03.354Z,8.30
2018-12-08T17:30:30.628Z,8.30
2018-12-08T17:32:57.818Z,8.20
2018-12-08T17:35:26.053Z,8.20
2018-12-08T17:37:53.246Z,8.20
2018-12-08T17:40:20.566Z,8.20
2018-12-08T17:42:47.800Z,8.20
2018-12-08T17:45:18.473Z,8.20
2018-12-08T17:47:45.645Z,8.20
2018-12-08T17:50:16.480Z,8.20
2018-12-08T17:52:43.675Z,8.20
2018-12-08T17:55:15.581Z,8.20
2018-12-08T17:57:42.784Z,8.30
2018-12-08T18:00:17.470Z,8.30
2018-12-08T18:02:44.783Z,8.40
2018-12-08T18:05:12.029Z,8.40
2018-12-08T18:07:39.226Z,8.40
2018-12-08T18:10:09.832Z,8.40
2018-12-08T18:12:37.025Z,8.40
2018-12-08T18:15:04.414Z,8.40
2018-12-08T18:17:31.612Z,8.40
2018-12-08T18:19:58.787Z,8.30
2018-12-08T18:22:26.121Z,8.30
2018-12-08T18:24:56.656Z,8.20
2018-12-08T18:27:23.869Z,8.20
2018-12-08T18:29:54.684Z,8.10
2018-12-08T18:32:21.880Z,8.10
2018-12-08T18:34:49.088Z,8.20
2018-12-08T18:37:16.352Z,8.20
2018-12-08T18:39:43.570Z,8.30
2018-12-08T18:42:10.785Z,8.40
2018-12-08T18:44:40.052Z,8.30
2018-12-08T18:47:07.220Z,8.40
2018-12-08T18:49:34.444Z,8.40
2018-12-08T18:52:01.991Z,8.40
2018-12-08T18:54:29.285Z,8.30
2018-12-08T18:56:56.490Z,8.30
2018-12-08T18:59:23.760Z,8.40
2018-12-08T19:01:51.065Z,8.40
2018-12-08T19:04:18.391Z,8.40
2018-12-08T19:06:45.577Z,8.40
2018-12-08T19:09:12.824Z,8.40
2018-12-08T19:11:39.981Z,8.40
2018-12-08T19:14:07.396Z,8.40
2018-12-08T19:16:35.639Z,8.50
2018-12-08T19:21:49.832Z,8.50
2018-12-08T19:24:17.276Z,8.50
2018-12-08T19:26:44.494Z,8.50
2018-12-08T19:29:11.826Z,8.60
2018-12-08T19:31:39.022Z,8.50
2018-12-08T19:34:06.300Z,8.50
2018-12-08T19:36:33.813Z,8.50
2018-12-08T19:39:04.575Z,8.60
2018-12-08T19:41:31.792Z,8.60
2018-12-08T19:44:01.468Z,8.70
2018-12-08T19:46:28.791Z,8.80
2018-12-08T19:48:56.401Z,8.80
2018-12-08T19:51:23.632Z,8.90
2018-12-08T19:53:53.022Z,8.90
2018-12-08T19:56:20.244Z,8.90
2018-12-08T19:58:47.606Z,8.80
2018-12-08T20:01:14.796Z,8.80
2018-12-08T20:03:42.133Z,8.70
2018-12-08T20:06:09.524Z,8.60
2018-12-08T20:08:38.376Z,8.50
2018-12-08T20:11:05.597Z,8.40
2018-12-08T20:13:33.846Z,8.40
2018-12-08T20:16:01.314Z,8.40
2018-12-08T20:18:28.605Z,8.30
2018-12-08T20:20:55.934Z,8.30
2018-12-08T20:23:23.132Z,8.30
2018-12-08T20:25:50.423Z,8.30
2018-12-08T20:28:17.647Z,8.20
2018-12-08T20:30:45.923Z,8.20
2018-12-08T20:33:13.114Z,8.20
2018-12-08T20:35:40.406Z,8.30
2018-12-08T20:38:07.622Z,8.30
2018-12-08T20:40:35.103Z,8.30
2018-12-08T20:43:02.416Z,8.30
2018-12-08T20:45:33.326Z,8.30
2018-12-08T20:48:00.584Z,8.30
2018-12-08T20:50:27.930Z,8.30
2018-12-08T20:52:55.129Z,8.30
2018-12-08T20:55:24.449Z,8.30
2018-12-08T20:57:51.701Z,8.40
2018-12-08T21:00:18.977Z,8.40
2018-12-08T21:02:46.323Z,8.50
2018-12-08T21:05:13.648Z,8.50
2018-12-08T21:07:40.888Z,8.50
2018-12-08T21:10:08.572Z,8.60
2018-12-08T21:12:36.030Z,8.60
2018-12-08T21:15:07.725Z,8.60
2018-12-08T21:17:34.990Z,8.60
2018-12-08T21:20:02.214Z,8.50
2018-12-08T21:22:29.482Z,8.50
2018-12-08T21:24:56.694Z,8.60
2018-12-08T21:27:23.985Z,8.60
2018-12-08T21:29:51.163Z,8.60
2018-12-08T21:32:26.024Z,8.60
2018-12-08T21:34:53.221Z,8.70
2018-12-08T21:37:21.975Z,8.70
2018-12-08T21:39:49.409Z,8.80
2018-12-08T21:42:16.687Z,8.80
2018-12-08T21:44:43.894Z,8.80
2018-12-08T21:47:11.117Z,8.70
2018-12-08T21:49:38.368Z,8.80
2018-12-08T21:52:05.655Z,8.90
2018-12-08T21:54:33.071Z,8.90
2018-12-08T21:57:00.992Z,8.90
2018-12-08T21:59:28.201Z,8.90
2018-12-08T22:01:55.488Z,8.90
2018-12-08T22:04:22.679Z,9.00
2018-12-08T22:06:50.974Z,9.00
2018-12-08T22:09:18.168Z,9.10
2018-12-08T22:11:49.100Z,9.10
2018-12-08T22:14:16.285Z,9.10
2018-12-08T22:16:43.477Z,9.00
2018-12-08T22:19:10.669Z,9.10
2018-12-08T22:21:39.902Z,9.10
2018-12-08T22:24:07.069Z,9.10
2018-12-08T22:26:34.299Z,9.20
2018-12-08T22:29:01.514Z,9.30
2018-12-08T22:31:28.819Z,9.40
2018-12-08T22:33:56.020Z,9.40
2018-12-08T22:36:23.310Z,9.40
2018-12-08T22:38:50.556Z,9.40
2018-12-08T22:41:17.789Z,9.30
2018-12-08T22:43:44.956Z,9.20
2018-12-08T22:46:12.235Z,9.30
2018-12-08T22:48:39.448Z,9.30
2018-12-08T22:51:07.864Z,9.30
2018-12-08T22:53:35.042Z,9.30
2018-12-08T22:56:06.159Z,9.30
2018-12-08T22:58:33.400Z,9.30
2018-12-08T23:01:00.793Z,9.30
2018-12-08T23:03:27.987Z,9.30
2018-12-08T23:05:55.256Z,9.30
2018-12-08T23:08:22.617Z,9.30
2018-12-08T23:10:49.872Z,9.30
2018-12-08T23:13:17.060Z,9.30
2018-12-08T23:15:45.284Z,9.30
2018-12-08T23:18:12.541Z,9.30
2018-12-08T23:20:39.777Z,9.20
2018-12-08T23:23:07.023Z,9.20
2018-12-08T23:25:34.221Z,9.10
2018-12-08T23:28:01.418Z,9.10
2018-12-08T23:30:28.639Z,9.10
2018-12-08T23:32:55.826Z,9.10
2018-12-08T23:35:22.981Z,9.10
2018-12-08T23:37:56.252Z,9.20
2018-12-08T23:40:23.438Z,9.20
2018-12-08T23:42:50.790Z,9.20
2018-12-08T23:45:17.980Z,9.10
2018-12-08T23:47:48.254Z,9.20
2018-12-08T23:50:15.442Z,9.10
2018-12-08T23:52:46.269Z,9.10
2018-12-08T23:55:13.562Z,9.20
2018-12-08T23:57:46.285Z,9.30
